Time,TemperatureF,DewpointF,PressureIn,WindDirection,WindDirectionDegrees,WindSpeedMPH,WindSpeedGustMPH,Humidity,HourlyPrecipIn,Conditions,Clouds,dailyrainin,SolarRadiationWatts/m^2,SoftwareType,DateUTC
2013-07-11 00:02:00,69.0,68.0,30.10,WNW,288,1.0,7.0,98,0.00,,,0.67,0.000000,,2013-07-11 04:02:00,
2013-07-11 00:10:00,68.0,67.0,30.08,SSW,195,3.0,6.0,98,0.00,,,0.67,0.000000,,2013-07-11 04:10:00,
2013-07-11 00:43:00,68.0,67.0,30.08,SSW,195,3.0,6.0,98,0.00,,,0.67,0.000000,,2013-07-11 04:43:00,
2013-07-11 00:53:00,68.0,67.0,30.08,SSW,195,3.0,6.0,98,0.00,,,0.67,0.000000,,2013-07-11 04:53:00,
2013-07-11 01:02:00,68.0,67.0,30.08,SSW,195,3.0,6.0,98,0.00,,,0.67,0.000000,,2013-07-11 05:02:00,
2013-07-11 01:10:00,68.0,68.0,30.06,WSW,256,2.0,6.0,99,0.00,,,0.67,0.000000,,2013-07-11 05:10:00,
2013-07-11 01:43:00,68.0,68.0,30.06,WSW,256,2.0,6.0,99,0.00,,,0.67,0.000000,,2013-07-11 05:43:00,
2013-07-11 01:52:00,68.0,68.0,30.06,WSW,256,2.0,6.0,99,0.00,,,0.67,0.000000,,2013-07-11 05:52:00,
2013-07-11 02:01:00,68.0,68.0,30.06,WSW,256,2.0,6.0,99,0.00,,,0.67,0.000000,,2013-07-11 06:01:00,
2013-07-11 02:10:00,67.0,67.0,30.05,East,88,3.0,7.0,100,0.00,,,0.67,0.000000,,2013-07-11 06:10:00,
2013-07-11 02:43:00,67.0,67.0,30.05,East,88,3.0,7.0,100,0.00,,,0.67,0.000000,,2013-07-11 06:43:00,
2013-07-11 02:53:00,67.0,67.0,30.05,East,88,3.0,7.0,100,0.00,,,0.67,0.000000,,2013-07-11 06:53:00,
2013-07-11 03:02:00,67.0,67.0,30.05,East,88,3.0,7.0,100,0.00,,,0.67,0.000000,,2013-07-11 07:02:00,
2013-07-11 03:10:00,68.0,68.0,30.05,SSW,211,3.0,8.0,100,0.00,,,0.67,0.000000,,2013-07-11 07:10:00,
2013-07-11 03:45:00,68.0,68.0,30.05,SSW,211,3.0,8.0,100,0.00,,,0.67,0.000000,,2013-07-11 07:45:00,
2013-07-11 03:53:00,68.0,68.0,30.05,SSW,211,3.0,8.0,100,0.00,,,0.67,0.000000,,2013-07-11 07:53:00,
2013-07-11 04:02:00,68.0,68.0,30.05,SSW,211,3.0,8.0,100,0.00,,,0.67,0.000000,,2013-07-11 08:02:00,
2013-07-11 04:10:00,68.0,68.0,30.05,WSW,243,2.0,6.0,100,0.00,,,0.67,0.000000,,2013-07-11 08:10:00,
2013-07-11 04:43:00,68.0,68.0,30.05,WSW,243,2.0,6.0,100,0.00,,,0.67,0.000000,,2013-07-11 08:43:00,
2013-07-11 04:53:00,68.0,68.0,30.05,WSW,243,2.0,6.0,100,0.00,,,0.67,0.000000,,2013-07-11 08:53:00,
2013-07-11 05:03:00,68.0,68.0,30.05,WSW,243,2.0,6.0,100,0.00,,,0.67,0.000000,,2013-07-11 09:03:00,
2013-07-11 05:10:00,66.0,66.0,30.04,West,267,2.0,8.0,100,0.00,,,0.67,0.000000,,2013-07-11 09:10:00,
2013-07-11 05:43:00,66.0,66.0,30.04,West,267,2.0,8.0,100,0.00,,,0.67,0.000000,,2013-07-11 09:43:00,
2013-07-11 05:53:00,66.0,66.0,30.04,West,267,2.0,8.0,100,0.00,,,0.67,0.000000,,2013-07-11 09:53:00,
2013-07-11 06:01:00,66.0,66.0,30.04,West,267,2.0,8.0,100,0.00,,,0.67,0.000000,,2013-07-11 10:01:00,
2013-07-11 06:10:00,66.0,66.0,30.04,ENE,58,2.0,8.0,99,0.00,,,0.67,0.000000,,2013-07-11 10:10:00,
2013-07-11 06:43:00,66.0,66.0,30.04,ENE,58,2.0,8.0,99,0.00,,,0.67,0.000000,,2013-07-11 10:43:00,
2013-07-11 06:52:00,66.0,66.0,30.04,ENE,58,2.0,8.0,99,0.00,,,0.67,0.000000,,2013-07-11 10:52:00,
2013-07-11 07:02:00,66.0,66.0,30.04,ENE,58,2.0,8.0,99,0.00,,,0.67,0.000000,,2013-07-11 11:02:00,
2013-07-11 07:10:00,67.0,65.0,30.06,NNE,28,2.0,6.0,94,0.00,,,-99.99,0.000000,,2013-07-11 11:10:00,
2013-07-11 07:43:00,67.0,65.0,30.06,NNE,28,2.0,6.0,94,0.00,,,-99.99,0.000000,,2013-07-11 11:43:00,
2013-07-11 07:53:00,67.0,65.0,30.06,NNE,28,2.0,6.0,94,0.00,,,-99.99,0.000000,,2013-07-11 11:53:00,
2013-07-11 08:01:00,67.0,65.0,30.06,NNE,28,2.0,6.0,94,0.00,,,-99.99,0.000000,,2013-07-11 12:01:00,
2013-07-11 08:43:00,68.0,68.0,30.07,SSW,199,3.0,7.0,99,0.00,,,-99.99,20.000000,,2013-07-11 12:43:00,
2013-07-11 08:57:00,68.0,68.0,30.07,SSW,199,3.0,7.0,99,0.00,,,-99.99,20.000000,,2013-07-11 12:57:00,
2013-07-11 09:02:00,68.0,68.0,30.07,SSW,199,3.0,7.0,99,0.00,,,-99.99,20.000000,,2013-07-11 13:02:00,
2013-07-11 09:10:00,68.0,67.0,30.07,South,170,1.0,5.0,98,0.00,,,0.67,36.000000,,2013-07-11 13:10:00,
2013-07-11 09:55:00,68.0,67.0,30.07,South,170,1.0,5.0,98,0.00,,,0.67,36.000000,,2013-07-11 13:55:00,
2013-07-11 10:10:00,70.0,68.0,30.07,WNW,293,1.0,4.0,95,0.00,,,0.67,84.000000,,2013-07-11 14:10:00,
2013-07-11 10:47:00,70.0,68.0,30.07,WNW,293,1.0,4.0,95,0.00,,,0.67,84.000000,,2013-07-11 14:47:00,
2013-07-11 10:55:00,70.0,68.0,30.07,WNW,293,1.0,4.0,95,0.00,,,0.67,84.000000,,2013-07-11 14:55:00,
2013-07-11 11:06:00,70.0,68.0,30.07,WNW,293,1.0,4.0,95,0.00,,,0.67,84.000000,,2013-07-11 15:06:00,
2013-07-11 11:10:00,73.0,71.0,30.08,SSW,213,2.0,3.0,92,0.00,,,0.67,145.000000,,2013-07-11 15:10:00,
2013-07-11 11:48:00,73.0,71.0,30.08,SSW,213,2.0,3.0,92,0.00,,,0.67,145.000000,,2013-07-11 15:48:00,
2013-07-11 11:59:00,73.0,71.0,30.08,SSW,213,2.0,3.0,92,0.00,,,0.67,145.000000,,2013-07-11 15:59:00,
2013-07-11 12:06:00,73.0,71.0,30.08,SSW,213,2.0,3.0,92,0.00,,,0.67,145.000000,,2013-07-11 16:06:00,
2013-07-11 12:10:00,77.0,71.0,30.07,SSW,200,3.0,7.0,81,0.00,,,0.67,217.000000,,2013-07-11 16:10:00,
2013-07-11 12:49:00,77.0,71.0,30.07,SSW,200,3.0,7.0,81,0.00,,,0.67,217.000000,,2013-07-11 16:49:00,
2013-07-11 12:56:00,77.0,71.0,30.07,SSW,200,3.0,7.0,81,0.00,,,0.67,217.000000,,2013-07-11 16:56:00,
2013-07-11 13:03:00,77.0,71.0,30.07,SSW,200,3.0,7.0,81,0.00,,,0.67,217.000000,,2013-07-11 17:03:00,
2013-07-11 13:49:00,77.0,72.0,30.06,SSW,200,4.0,8.0,84,0.00,,,0.67,612.000000,,2013-07-11 17:49:00,
2013-07-11 13:56:00,77.0,72.0,30.06,SSW,200,4.0,8.0,84,0.00,,,0.67,612.000000,,2013-07-11 17:56:00,
2013-07-11 14:05:00,77.0,72.0,30.06,SSW,200,4.0,8.0,84,0.00,,,0.67,612.000000,,2013-07-11 18:05:00,
2013-07-11 14:10:00,77.0,70.0,30.04,SSW,195,4.0,11.0,79,0.00,,,0.27,586.000000,,2013-07-11 18:10:00,
2013-07-11 14:49:00,77.0,70.0,30.04,SSW,195,4.0,11.0,79,0.00,,,0.27,586.000000,,2013-07-11 18:49:00,
2013-07-11 14:56:00,77.0,70.0,30.04,SSW,195,4.0,11.0,79,0.00,,,0.27,586.000000,,2013-07-11 18:56:00,
2013-07-11 15:05:00,77.0,70.0,30.04,SSW,195,4.0,11.0,79,0.00,,,0.27,586.000000,,2013-07-11 19:05:00,
2013-07-11 15:10:00,78.0,72.0,30.03,SSW,194,3.0,9.0,81,0.00,,,0.27,664.000000,,2013-07-11 19:10:00,
2013-07-11 15:47:00,78.0,72.0,30.03,SSW,194,3.0,9.0,81,0.00,,,0.27,664.000000,,2013-07-11 19:47:00,
2013-07-11 15:57:00,78.0,72.0,30.03,SSW,194,3.0,9.0,81,0.00,,,0.27,664.000000,,2013-07-11 19:57:00,
2013-07-11 16:07:00,78.0,72.0,30.03,SSW,194,3.0,9.0,81,0.00,,,0.27,664.000000,,2013-07-11 20:07:00,
2013-07-11 16:10:00,76.0,71.0,30.03,SW,225,3.0,10.0,85,0.00,,,0.26,513.000000,,2013-07-11 20:10:00,
2013-07-11 16:50:00,76.0,71.0,30.03,SW,225,3.0,10.0,85,0.00,,,0.26,513.000000,,2013-07-11 20:50:00,
2013-07-11 16:56:00,76.0,71.0,30.03,SW,225,3.0,10.0,85,0.00,,,0.26,513.000000,,2013-07-11 20:56:00,
2013-07-11 17:05:00,76.0,71.0,30.03,SW,225,3.0,10.0,85,0.00,,,0.26,513.000000,,2013-07-11 21:05:00,
2013-07-11 17:10:00,75.0,68.0,30.00,SSW,198,1.0,9.0,80,0.01,,,0.09,454.000000,,2013-07-11 21:10:00,
2013-07-11 17:46:00,75.0,68.0,30.00,SSW,198,1.0,9.0,80,0.01,,,0.09,454.000000,,2013-07-11 21:46:00,
2013-07-11 17:58:00,75.0,68.0,30.00,SSW,198,1.0,9.0,80,0.01,,,0.09,454.000000,,2013-07-11 21:58:00,
2013-07-11 18:10:00,76.0,72.0,30.00,ENE,60,1.0,5.0,88,0.00,,,0.07,339.000000,,2013-07-11 22:10:00,
2013-07-11 18:49:00,76.0,72.0,30.00,ENE,60,1.0,5.0,88,0.00,,,0.07,339.000000,,2013-07-11 22:49:00,
2013-07-11 18:55:00,76.0,72.0,30.00,ENE,60,1.0,5.0,88,0.00,,,0.07,339.000000,,2013-07-11 22:55:00,
2013-07-11 19:06:00,76.0,72.0,30.00,ENE,60,1.0,5.0,88,0.00,,,0.07,339.000000,,2013-07-11 23:06:00,
2013-07-11 19:10:00,74.0,72.0,30.00,West,270,2.0,5.0,93,0.00,,,0.04,249.000000,,2013-07-11 23:10:00,
2013-07-11 20:05:00,74.0,72.0,30.00,West,270,2.0,5.0,93,0.00,,,0.04,249.000000,,2013-07-12 00:05:00,
2013-07-11 20:10:00,74.0,70.0,30.01,SW,222,2.0,5.0,88,0.00,,,0.03,139.000000,,2013-07-12 00:10:00,
2013-07-11 20:46:00,74.0,70.0,30.01,SW,222,2.0,5.0,88,0.00,,,0.03,139.000000,,2013-07-12 00:46:00,
2013-07-11 20:58:00,74.0,70.0,30.01,SW,222,2.0,5.0,88,0.00,,,0.03,139.000000,,2013-07-12 00:58:00,
2013-07-11 21:05:00,74.0,70.0,30.01,SW,222,2.0,5.0,88,0.00,,,0.03,139.000000,,2013-07-12 01:05:00,
2013-07-11 21:10:00,70.0,69.0,30.00,NE,34,3.0,5.0,96,0.00,,,0.01,154.000000,,2013-07-12 01:10:00,
2013-07-11 21:49:00,70.0,69.0,30.00,NE,34,3.0,5.0,96,0.00,,,0.01,154.000000,,2013-07-12 01:49:00,
2013-07-11 21:56:00,70.0,69.0,30.00,NE,34,3.0,5.0,96,0.00,,,0.01,154.000000,,2013-07-12 01:56:00,
2013-07-11 22:07:00,70.0,69.0,30.00,NE,34,3.0,5.0,96,0.00,,,0.01,154.000000,,2013-07-12 02:07:00,
2013-07-11 22:10:00,70.0,70.0,30.02,ENE,62,2.0,8.0,99,0.00,,,0.01,20.000000,,2013-07-12 02:10:00,
2013-07-11 22:55:00,70.0,70.0,30.02,ENE,62,2.0,8.0,99,0.00,,,0.01,20.000000,,2013-07-12 02:55:00,
2013-07-11 23:04:00,70.0,70.0,30.02,ENE,62,2.0,8.0,99,0.00,,,0.01,20.000000,,2013-07-12 03:04:00,
2013-07-11 23:10:00,68.0,67.0,30.03,SSE,163,1.0,6.0,96,0.00,,,0.01,0.000000,,2013-07-12 03:10:00,
2013-07-11 23:47:00,68.0,67.0,30.03,SSE,163,1.0,6.0,96,0.00,,,0.01,0.000000,,2013-07-12 03:47:00,
2013-07-11 23:56:00,68.0,67.0,30.03,SSE,163,1.0,6.0,96,0.00,,,0.01,0.000000,,2013-07-12 03:56:00,